createdAt,value
2023-09-26T00:01:52.710Z,0.90
2023-09-26T00:04:55.624Z,1.35
2023-09-26T00:07:58.796Z,1.40
2023-09-26T00:11:01.260Z,0.90
2023-09-26T00:14:06.278Z,1.08
2023-09-26T00:17:09.593Z,0.80
2023-09-26T00:20:34.180Z,1.15
2023-09-26T00:23:36.634Z,1.30
2023-09-26T00:26:38.875Z,0.80
2023-09-26T00:29:41.955Z,0.95
2023-09-26T00:32:45.412Z,1.00
2023-09-26T00:35:47.581Z,1.48
2023-09-26T00:38:49.818Z,0.93
2023-09-26T00:41:52.202Z,5.03
2023-09-26T00:44:54.436Z,3.92
2023-09-26T00:47:56.713Z,1.35
2023-09-26T00:51:00.332Z,1.20
2023-09-26T00:54:04.043Z,1.27
2023-09-26T00:57:06.749Z,0.82
2023-09-26T01:00:14.230Z,0.50
2023-09-26T01:03:17.497Z,2.40
2023-09-26T01:06:20.041Z,1.08
2023-09-26T01:09:24.421Z,0.60
2023-09-26T01:12:27.631Z,0.73
2023-09-26T01:15:37.356Z,1.40
2023-09-26T01:18:39.529Z,1.85
2023-09-26T01:21:41.649Z,0.80
2023-09-26T01:24:44.850Z,0.63
2023-09-26T01:27:48.095Z,1.60
2023-09-26T01:30:50.487Z,1.00
2023-09-26T01:33:53.093Z,1.38
2023-09-26T01:36:55.741Z,1.60
2023-09-26T01:39:58.025Z,1.45
2023-09-26T01:43:00.199Z,1.30
2023-09-26T01:46:02.592Z,2.30
2023-09-26T01:49:05.083Z,1.48
2023-09-26T01:52:07.369Z,1.42
2023-09-26T01:55:15.655Z,1.30
2023-09-26T01:58:17.975Z,1.50
2023-09-26T02:01:20.424Z,1.30
2023-09-26T02:04:22.728Z,2.83
2023-09-26T02:07:26.164Z,2.47
2023-09-26T02:10:28.476Z,1.90
2023-09-26T02:13:30.771Z,1.73
2023-09-26T02:16:33.156Z,3.00
2023-09-26T02:19:35.330Z,1.60
2023-09-26T02:22:37.784Z,2.08
2023-09-26T02:25:40.669Z,1.50
2023-09-26T02:28:42.767Z,1.70
2023-09-26T02:31:44.982Z,1.67
2023-09-26T02:34:47.193Z,2.22
2023-09-26T02:37:50.562Z,2.30
2023-09-26T02:40:52.820Z,1.60
2023-09-26T02:43:57.013Z,2.15
2023-09-26T02:50:02.885Z,1.83
2023-09-26T02:53:07.089Z,1.52
2023-09-26T02:56:12.236Z,1.90
2023-09-26T02:59:14.453Z,1.95
2023-09-26T03:02:16.641Z,1.83
2023-09-26T03:05:19.346Z,1.30
2023-09-26T03:08:21.651Z,1.65
2023-09-26T03:11:25.936Z,1.80
2023-09-26T03:14:28.605Z,1.73
2023-09-26T03:17:31.154Z,1.52
2023-09-26T03:20:37.705Z,1.30
2023-09-26T03:23:40.206Z,1.52
2023-09-26T03:26:42.343Z,1.77
2023-09-26T03:29:44.598Z,2.50
2023-09-26T03:32:46.862Z,3.40
2023-09-26T03:35:49.068Z,2.97
2023-09-26T03:38:51.299Z,1.67
2023-09-26T03:41:53.531Z,1.25
2023-09-26T03:44:55.732Z,1.92
2023-09-26T03:47:58.043Z,2.20
2023-09-26T03:51:10.279Z,1.67
2023-09-26T03:54:12.442Z,2.88
2023-09-26T03:57:14.573Z,1.95
2023-09-26T04:00:18.332Z,2.08
2023-09-26T04:03:23.905Z,1.60
2023-09-26T04:06:26.176Z,2.58
2023-09-26T04:09:28.369Z,2.40
2023-09-26T04:12:30.469Z,2.75
2023-09-26T04:15:32.933Z,2.10
2023-09-26T04:18:35.273Z,2.58
2023-09-26T04:21:37.432Z,2.30
2023-09-26T04:24:39.560Z,2.58
2023-09-26T04:27:41.970Z,2.90
2023-09-26T04:30:44.375Z,2.40
2023-09-26T04:33:50.479Z,2.20
2023-09-26T04:36:52.892Z,2.13
2023-09-26T04:39:55.509Z,3.58
2023-09-26T04:43:02.529Z,3.10
2023-09-26T04:46:12.214Z,2.78
2023-09-26T04:49:14.653Z,2.75
2023-09-26T04:52:16.847Z,2.92
2023-09-26T04:55:19.072Z,3.20
2023-09-26T04:58:21.433Z,3.20
2023-09-26T05:01:27.464Z,3.22
2023-09-26T05:04:29.886Z,3.03
2023-09-26T05:07:32.462Z,4.05
2023-09-26T05:10:38.741Z,4.75
2023-09-26T05:13:40.991Z,3.45
2023-09-26T05:16:43.339Z,3.88
2023-09-26T05:19:46.275Z,4.30
2023-09-26T05:22:50.609Z,3.30
2023-09-26T05:25:53.782Z,3.50
2023-09-26T05:28:55.937Z,3.80
2023-09-26T05:31:58.149Z,4.55
2023-09-26T05:35:00.473Z,5.13
2023-09-26T05:38:02.688Z,4.55
2023-09-26T05:41:06.851Z,3.45
2023-09-26T05:44:09.280Z,3.67
2023-09-26T05:47:11.551Z,5.07
2023-09-26T05:50:13.978Z,4.45
2023-09-26T05:53:16.294Z,4.03
2023-09-26T05:56:18.866Z,3.28
2023-09-26T05:59:21.057Z,4.15
2023-09-26T06:02:23.249Z,3.45
2023-09-26T06:05:26.890Z,4.10
2023-09-26T06:08:29.182Z,3.72
2023-09-26T06:11:31.385Z,4.78
2023-09-26T06:14:35.343Z,4.93
2023-09-26T06:17:37.867Z,4.20
2023-09-26T06:20:45.827Z,2.80
2023-09-26T06:23:49.948Z,2.58
2023-09-26T06:26:52.614Z,3.70
2023-09-26T06:29:55.011Z,2.85
2023-09-26T06:32:57.289Z,3.55
2023-09-26T06:36:00.170Z,4.82
2023-09-26T06:39:02.441Z,3.97
2023-09-26T06:42:04.801Z,3.53
2023-09-26T06:45:07.736Z,3.58
2023-09-26T06:48:10.129Z,3.33
2023-09-26T06:51:12.755Z,2.92
2023-09-26T06:54:14.947Z,3.38
2023-09-26T06:57:19.502Z,3.45
2023-09-26T07:00:21.716Z,3.95
2023-09-26T07:03:24.507Z,3.63
2023-09-26T07:06:26.871Z,5.15
2023-09-26T07:09:29.281Z,4.05
2023-09-26T07:12:31.857Z,3.22
2023-09-26T07:15:33.998Z,3.22
2023-09-26T07:18:39.032Z,3.90
2023-09-26T07:21:41.283Z,2.90
2023-09-26T07:27:51.796Z,2.95
2023-09-26T07:30:54.801Z,3.03
2023-09-26T07:33:57.366Z,3.22
2023-09-26T07:36:59.741Z,2.72
2023-09-26T07:40:06.313Z,4.30
2023-09-26T07:43:08.605Z,3.97
2023-09-26T07:46:12.392Z,3.42
2023-09-26T07:52:19.313Z,4.10
2023-09-26T07:55:21.704Z,4.28
2023-09-26T07:58:24.516Z,4.10
2023-09-26T08:01:27.132Z,3.15
2023-09-26T08:04:29.735Z,4.40
2023-09-26T08:07:32.280Z,4.80
2023-09-26T08:10:39.357Z,3.25
2023-09-26T08:13:41.778Z,4.30
2023-09-26T08:16:44.158Z,4.18
2023-09-26T08:19:46.590Z,3.80
2023-09-26T08:22:48.793Z,4.38
2023-09-26T08:25:51.025Z,5.20
2023-09-26T08:28:53.327Z,5.72
2023-09-26T08:31:56.389Z,3.97
2023-09-26T08:34:58.880Z,4.47
2023-09-26T08:38:01.096Z,4.78
2023-09-26T08:41:06.950Z,4.43
2023-09-26T08:44:09.374Z,9.02
2023-09-26T08:47:11.808Z,3.58
2023-09-26T08:50:14.186Z,2.90
2023-09-26T08:53:16.554Z,3.03
2023-09-26T08:56:21.507Z,3.63
2023-09-26T08:59:24.051Z,4.07
2023-09-26T09:02:26.682Z,4.37
2023-09-26T09:05:29.241Z,3.75
2023-09-26T09:08:31.644Z,2.90
2023-09-26T09:11:34.576Z,4.20
2023-09-26T09:14:37.669Z,2.60
2023-09-26T09:17:44.120Z,3.35
2023-09-26T09:20:46.289Z,2.97
2023-09-26T09:23:53.368Z,3.20
2023-09-26T09:26:55.774Z,2.80
2023-09-26T09:30:20.725Z,2.75
2023-09-26T09:33:23.717Z,3.08
2023-09-26T09:36:26.138Z,4.00
2023-09-26T09:39:28.413Z,2.53
2023-09-26T09:42:30.952Z,2.78
2023-09-26T09:45:38.343Z,2.75
2023-09-26T09:48:46.357Z,2.25
2023-09-26T09:51:49.106Z,2.53
2023-09-26T09:54:54.280Z,2.90
2023-09-26T09:57:58.694Z,2.25
2023-09-26T10:01:04.363Z,3.17
2023-09-26T10:04:07.945Z,3.20
2023-09-26T10:07:11.209Z,1.83
2023-09-26T10:10:15.467Z,3.40
2023-09-26T10:16:26.610Z,2.28
2023-09-26T10:19:47.715Z,2.30
2023-09-26T10:23:11.138Z,2.30
2023-09-26T10:26:13.592Z,1.92
2023-09-26T10:29:15.851Z,2.42
2023-09-26T10:32:33.458Z,3.17
2023-09-26T10:35:45.584Z,2.35
2023-09-26T10:39:06.788Z,3.22
2023-09-26T10:45:26.489Z,2.78
2023-09-26T10:48:28.779Z,1.90
2023-09-26T10:51:31.352Z,1.85
2023-09-26T10:54:35.185Z,1.85
2023-09-26T10:57:39.564Z,2.78
2023-09-26T11:04:15.924Z,2.28
2023-09-26T11:07:18.484Z,2.05
2023-09-26T11:10:21.200Z,1.95
2023-09-26T11:13:26.743Z,2.85
2023-09-26T11:16:28.918Z,1.67
2023-09-26T11:19:31.396Z,2.17
2023-09-26T11:22:50.687Z,2.13
2023-09-26T11:25:53.730Z,2.53
2023-09-26T11:28:56.509Z,1.92
2023-09-26T11:31:58.965Z,2.35
2023-09-26T11:35:01.704Z,2.65
2023-09-26T11:38:05.471Z,2.70
2023-09-26T11:41:07.855Z,2.22
2023-09-26T11:44:11.657Z,2.10
2023-09-26T11:47:13.989Z,2.28
2023-09-26T11:50:16.912Z,2.70
2023-09-26T11:53:19.153Z,2.25
2023-09-26T11:56:28.676Z,2.78
2023-09-26T11:59:31.466Z,2.20
2023-09-26T12:02:34.988Z,2.47
2023-09-26T12:05:37.603Z,2.47
2023-09-26T12:08:40.129Z,2.97
2023-09-26T12:11:42.433Z,2.37
2023-09-26T12:14:47.419Z,1.98
2023-09-26T12:17:54.353Z,2.40
2023-09-26T12:20:57.451Z,2.33
2023-09-26T12:23:59.734Z,2.70
2023-09-26T12:27:03.908Z,3.08
2023-09-26T12:30:06.810Z,2.75
2023-09-26T12:33:09.070Z,2.08
2023-09-26T12:36:11.821Z,2.13
2023-09-26T12:39:14.059Z,1.67
2023-09-26T12:42:16.503Z,3.15
2023-09-26T12:45:18.910Z,2.90
2023-09-26T12:48:21.813Z,1.50
2023-09-26T12:51:23.994Z,1.88
2023-09-26T12:54:27.277Z,2.40
2023-09-26T12:57:29.467Z,2.13
2023-09-26T13:00:32.174Z,2.92
2023-09-26T13:03:34.433Z,2.28
2023-09-26T13:06:36.730Z,1.85
2023-09-26T13:09:38.996Z,2.42
2023-09-26T13:12:44.309Z,4.40
2023-09-26T13:15:47.339Z,3.35
2023-09-26T13:18:49.731Z,4.45
2023-09-26T13:21:52.685Z,7.00
2023-09-26T13:24:55.004Z,5.10
2023-09-26T13:27:58.260Z,5.18
2023-09-26T13:31:00.451Z,5.53
2023-09-26T13:34:02.724Z,4.07
2023-09-26T13:37:04.873Z,4.35
2023-09-26T13:40:07.670Z,4.95
2023-09-26T13:43:09.986Z,3.67
2023-09-26T13:46:12.193Z,3.80
2023-09-26T13:49:14.963Z,5.55
2023-09-26T13:52:17.237Z,4.95
2023-09-26T13:55:19.563Z,4.78
2023-09-26T13:58:21.859Z,5.70
2023-09-26T14:01:24.260Z,4.30
2023-09-26T14:04:26.525Z,4.15
2023-09-26T14:07:29.506Z,5.70
2023-09-26T14:10:33.534Z,5.28
2023-09-26T14:13:35.785Z,5.55
2023-09-26T14:16:38.132Z,4.18
2023-09-26T14:19:40.556Z,4.10
2023-09-26T14:22:42.932Z,4.40
2023-09-26T14:25:54.358Z,5.20
2023-09-26T14:29:01.597Z,3.78
2023-09-26T14:32:04.357Z,4.55
2023-09-26T14:35:07.584Z,5.73
2023-09-26T14:38:09.964Z,3.88
2023-09-26T14:41:12.183Z,4.50
2023-09-26T14:44:16.860Z,4.15
2023-09-26T14:47:21.173Z,4.00
2023-09-26T14:50:23.466Z,3.72
2023-09-26T14:53:26.677Z,4.47
2023-09-26T14:56:28.922Z,5.05
2023-09-26T14:59:32.228Z,3.63
2023-09-26T15:02:34.575Z,6.25
2023-09-26T15:05:38.298Z,3.97
2023-09-26T15:11:43.646Z,3.20
2023-09-26T15:14:46.115Z,3.42
2023-09-26T15:17:48.472Z,3.15
2023-09-26T15:20:50.757Z,4.03
2023-09-26T15:23:53.104Z,1.77
2023-09-26T15:26:55.416Z,3.53
2023-09-26T15:29:57.601Z,2.70
2023-09-26T15:32:59.915Z,2.47
2023-09-26T15:36:02.314Z,2.10
2023-09-26T15:39:04.738Z,3.80
2023-09-26T15:42:07.233Z,2.85
2023-09-26T15:45:09.759Z,2.45
2023-09-26T15:48:11.935Z,3.97
2023-09-26T15:51:15.723Z,2.08
2023-09-26T15:57:20.815Z,2.42
2023-09-26T16:00:25.357Z,2.60
2023-09-26T16:03:27.728Z,2.72
2023-09-26T16:06:31.367Z,2.47
2023-09-26T16:12:39.872Z,3.00
2023-09-26T16:15:48.490Z,1.92
2023-09-26T16:18:50.883Z,1.88
2023-09-26T16:21:53.114Z,1.75
2023-09-26T16:24:55.410Z,1.50
2023-09-26T16:27:57.818Z,1.60
2023-09-26T16:31:00.000Z,1.40
2023-09-26T16:34:02.265Z,1.48
2023-09-26T16:37:04.395Z,1.73
2023-09-26T16:40:11.836Z,1.42
2023-09-26T16:43:14.136Z,1.20
2023-09-26T16:46:17.486Z,1.42
2023-09-26T16:49:21.037Z,1.58
2023-09-26T16:52:23.333Z,1.77
2023-09-26T16:55:25.759Z,1.70
2023-09-26T16:58:28.111Z,1.38
2023-09-26T17:01:30.962Z,1.42
2023-09-26T17:04:33.564Z,1.20
2023-09-26T17:07:35.747Z,1.55
2023-09-26T17:10:38.504Z,3.33
2023-09-26T17:13:40.918Z,2.50
2023-09-26T17:16:43.079Z,1.63
2023-09-26T17:19:45.378Z,1.92
2023-09-26T17:22:47.698Z,1.58
2023-09-26T17:25:50.342Z,2.17
2023-09-26T17:28:53.281Z,1.60
2023-09-26T17:31:55.604Z,2.97
2023-09-26T17:34:58.048Z,1.38
2023-09-26T17:38:00.663Z,1.13
2023-09-26T17:41:03.803Z,1.17
2023-09-26T17:44:06.401Z,2.08
2023-09-26T17:47:08.654Z,1.50
2023-09-26T17:50:11.254Z,1.25
2023-09-26T17:53:13.393Z,1.67
2023-09-26T17:56:15.600Z,1.33
2023-09-26T17:59:17.948Z,1.38
2023-09-26T18:02:20.161Z,4.85
2023-09-26T18:05:24.463Z,1.70
2023-09-26T18:08:27.049Z,1.95
2023-09-26T18:11:29.303Z,2.13
2023-09-26T18:14:31.479Z,2.08
2023-09-26T18:17:33.854Z,2.58
2023-09-26T18:20:36.191Z,1.67
2023-09-26T18:23:38.499Z,2.00
2023-09-26T18:26:40.772Z,2.35
2023-09-26T18:29:43.282Z,1.83
2023-09-26T18:32:50.517Z,2.10
2023-09-26T18:35:52.862Z,4.65
2023-09-26T18:38:55.091Z,2.00
2023-09-26T18:41:57.386Z,1.95
2023-09-26T18:44:59.570Z,2.53
2023-09-26T18:48:01.953Z,3.20
2023-09-26T18:51:04.674Z,1.90
2023-09-26T18:54:07.064Z,2.20
2023-09-26T18:57:09.235Z,2.97
2023-09-26T19:00:12.170Z,2.22
2023-09-26T19:03:14.632Z,2.50
2023-09-26T19:06:16.994Z,1.40
2023-09-26T19:09:19.228Z,1.65
2023-09-26T19:12:22.408Z,2.10
2023-09-26T19:15:24.619Z,1.92
2023-09-26T19:18:26.946Z,1.70
2023-09-26T19:21:29.436Z,2.08
2023-09-26T19:24:31.682Z,2.75
2023-09-26T19:27:33.846Z,2.15
2023-09-26T19:30:39.620Z,2.60
2023-09-26T19:33:41.804Z,2.10
2023-09-26T19:36:44.856Z,2.70
2023-09-26T19:39:47.063Z,3.72
2023-09-26T19:42:49.736Z,4.15
2023-09-26T19:45:51.870Z,2.47
2023-09-26T19:48:54.534Z,3.33
2023-09-26T19:51:56.871Z,2.58
2023-09-26T19:54:59.061Z,2.63
2023-09-26T19:58:01.280Z,2.78
2023-09-26T20:01:03.604Z,2.50
2023-09-26T20:04:06.234Z,2.80
2023-09-26T20:07:08.442Z,2.33
2023-09-26T20:10:10.865Z,2.92
2023-09-26T20:13:13.124Z,3.20
2023-09-26T20:16:17.878Z,2.95
2023-09-26T20:19:20.153Z,2.17
2023-09-26T20:22:22.315Z,3.78
2023-09-26T20:25:24.783Z,3.03
2023-09-26T20:28:27.046Z,3.03
2023-09-26T20:31:29.347Z,2.67
2023-09-26T20:34:31.851Z,3.70
2023-09-26T20:37:33.967Z,3.53
2023-09-26T20:40:37.810Z,4.75
2023-09-26T20:43:40.040Z,3.72
2023-09-26T20:46:42.282Z,3.60
2023-09-26T20:49:44.534Z,4.28
2023-09-26T20:52:46.792Z,3.83
2023-09-26T20:55:50.168Z,2.83
2023-09-26T20:58:52.673Z,4.53
2023-09-26T21:01:55.258Z,4.70
2023-09-26T21:04:57.545Z,3.70
2023-09-26T21:08:01.442Z,4.10
2023-09-26T21:14:06.127Z,3.50
2023-09-26T21:17:08.663Z,2.78
2023-09-26T21:20:11.529Z,2.60
2023-09-26T21:23:14.049Z,3.00
2023-09-26T21:26:20.239Z,3.25
2023-09-26T21:29:22.468Z,2.60
2023-09-26T21:32:24.770Z,2.72
2023-09-26T21:35:27.202Z,3.10
2023-09-26T21:38:29.732Z,3.10
2023-09-26T21:41:32.062Z,3.97
2023-09-26T21:44:35.098Z,2.60
2023-09-26T21:47:37.454Z,3.37
2023-09-26T21:50:39.738Z,3.00
2023-09-26T21:53:42.017Z,2.95
2023-09-26T21:56:47.181Z,2.80
2023-09-26T21:59:49.387Z,2.80
2023-09-26T22:02:59.936Z,2.20
2023-09-26T22:06:02.444Z,2.80
2023-09-26T22:09:04.867Z,2.70
2023-09-26T22:12:07.301Z,2.33
2023-09-26T22:15:11.059Z,2.20
2023-09-26T22:18:13.402Z,3.63
2023-09-26T22:21:15.596Z,2.85
2023-09-26T22:24:19.182Z,2.47
2023-09-26T22:27:23.047Z,2.38
2023-09-26T22:30:25.248Z,2.03
2023-09-26T22:33:27.937Z,1.67
2023-09-26T22:36:30.509Z,2.00
2023-09-26T22:39:32.813Z,3.00
2023-09-26T22:42:35.193Z,2.20
2023-09-26T22:45:38.310Z,2.40
2023-09-26T22:48:41.894Z,1.50
2023-09-26T22:51:44.796Z,1.70
2023-09-26T22:54:48.448Z,1.58
2023-09-26T22:57:50.628Z,2.70
2023-09-26T23:00:52.785Z,2.00
2023-09-26T23:03:55.418Z,2.83
2023-09-26T23:06:58.060Z,1.95
2023-09-26T23:10:01.030Z,2.03
2023-09-26T23:13:03.982Z,2.58
2023-09-26T23:16:08.348Z,1.35
2023-09-26T23:19:10.599Z,3.13
2023-09-26T23:22:12.796Z,3.13
2023-09-26T23:25:15.221Z,5.20
2023-09-26T23:28:18.813Z,4.18
2023-09-26T23:31:21.191Z,2.20
2023-09-26T23:34:25.396Z,2.38
2023-09-26T23:37:28.896Z,2.83
2023-09-26T23:40:33.745Z,2.50
2023-09-26T23:43:37.028Z,2.20
2023-09-26T23:46:39.338Z,2.47
2023-09-26T23:49:41.584Z,2.47
2023-09-26T23:52:45.469Z,2.33
2023-09-26T23:55:47.825Z,2.08
2023-09-26T23:58:50.363Z,2.38
